Time;durP1;ratioP1;P1;durP2;ratioP2;P2;SDS_P1;SDS_P2;PMS_P1;PMS_P2;Temp;Humidity;BMP_temperature;BMP_pressure;BME280_temperature;BME280_humidity;BME280_pressure;Samples;Min_cycle;Max_cycle;Signal;HPM_P1;HPM_P2
2022/12/29 00:00:57;;;;;;;;;;;;;;;;;;5073578;28;20015;-61
2022/12/29 00:03:24;;;;;;;;;;;;;;;;;;5068971;28;19951;-61
2022/12/29 00:05:55;;;;;;;;;;;;;;;;;;5070823;28;19966;-61
2022/12/29 00:08:38;;;;;;;;;;;;;;;;;;5074050;28;20031;-62
2022/12/29 00:11:05;;;;;;;;;;;;;;;;;;5075999;28;20356;-61
2022/12/29 00:16:15;;;;;;;;;;;;;;;;;;5075428;28;19940;-61
2022/12/29 00:18:42;;;;;;;;;;;;;;;;;;5071709;28;20009;-61
2022/12/29 00:35:07;;;;;;;;;;;;;;;;;;5076001;28;20012;-61
2022/12/29 00:35:13;;;;;;;;;;;;;;;;;;5078129;28;19931;-61
2022/12/29 00:45:51;;;;;;;;;;;;;;;;;;5079405;28;20516;-61
2022/12/29 00:49:29;;;;;;;;;;;;;;;;;;5079288;28;20037;-61
2022/12/29 00:51:05;;;;;;;;;;;;;;;;;;5079772;28;20027;-60
2022/12/29 00:53:31;;;;;;;;;;;;;;;;;;5078010;28;20011;-61
2022/12/29 00:55:58;;;;;;;;;;;;;;;;;;5082143;28;19982;-62
2022/12/29 00:58:24;;;;;;;;;;;;;;;;;;5078956;28;19928;-61
2022/12/29 01:00:51;;;;;;;;;;;;;;;;;;5076505;28;20024;-61
2022/12/29 01:03:19;;;;;;;;;;;;;;;;;;5082767;28;20367;-61
2022/12/29 01:05:45;;;;;;;;;;;;;;;;;;5081788;28;19967;-61
2022/12/29 01:08:11;;;;;;;;;;;;;;;;;;5082882;28;19928;-61
2022/12/29 01:10:37;;;;;;;;;;;;;;;;;;5076667;28;20567;-61
2022/12/29 01:13:03;;;;;;;;;;;;;;;;;;5080429;28;19975;-61
2022/12/29 01:15:30;;;;;;;;;;;;;;;;;;5076787;28;19982;-61
2022/12/29 01:17:56;;;;;;;;;;;;;;;;;;5078679;28;19924;-61
2022/12/29 01:20:24;;;;;;;;;;;;;;;;;;5080656;28;19928;-61
2022/12/29 01:22:50;;;;;;;;;;;;;;;;;;5083355;28;19979;-61
2022/12/29 01:25:16;;;;;;;;;;;;;;;;;;5084868;28;20354;-61
2022/12/29 01:27:43;;;;;;;;;;;;;;;;;;5078594;28;20540;-61
2022/12/29 01:30:10;;;;;;;;;;;;;;;;;;5081989;28;19928;-62
2022/12/29 01:32:36;;;;;;;;;;;;;;;;;;5085500;28;19932;-61
2022/12/29 01:35:03;;;;;;;;;;;;;;;;;;5085510;28;19971;-62
2022/12/29 01:37:30;;;;;;;;;;;;;;;;;;5076642;28;20429;-61
2022/12/29 01:39:57;;;;;;;;;;;;;;;;;;5078649;28;19967;-61
2022/12/29 01:42:24;;;;;;;;;;;;;;;;;;5082511;28;20408;-62
2022/12/29 01:44:52;;;;;;;;;;;;;;;;;;5086985;28;20014;-61
2022/12/29 01:47:20;;;;;;;;;;;;;;;;;;5079826;28;20383;-61
2022/12/29 01:49:46;;;;;;;;;;;;;;;;;;5080387;28;19978;-61
2022/12/29 01:52:12;;;;;;;;;;;;;;;;;;5081976;28;19963;-61
2022/12/29 01:54:41;;;;;;;;;;;;;;;;;;5078622;28;19928;-61
2022/12/29 01:57:08;;;;;;;;;;;;;;;;;;5078841;28;20261;-61
2022/12/29 01:59:35;;;;;;;;;;;;;;;;;;5081795;28;20028;-62
2022/12/29 02:02:02;;;;;;;;;;;;;;;;;;5076602;28;19975;-61
2022/12/29 02:04:29;;;;;;;;;;;;;;;;;;5077678;28;19928;-61
2022/12/29 02:06:56;;;;;;;;;;;;;;;;;;5083986;28;19928;-61
2022/12/29 02:09:23;;;;;;;;;;;;;;;;;;5083585;28;19928;-61
2022/12/29 02:11:51;;;;;;;;;;;;;;;;;;5071101;28;19932;-61
2022/12/29 02:14:17;;;;;;;;;;;;;;;;;;5078630;28;19971;-62
2022/12/29 02:16:48;;;;;;;;;;;;;;;;;;5071027;28;19975;-61
2022/12/29 02:19:24;;;;;;;;;;;;;;;;;;5080546;28;19928;-61
2022/12/29 02:21:57;;;;;;;;;;;;;;;;;;5075839;28;19974;-61
2022/12/29 02:24:46;;;;;;;;;;;;;;;;;;5082742;28;19924;-61
2022/12/29 02:27:22;;;;;;;;;;;;;;;;;;5077943;28;19971;-61
2022/12/29 02:30:05;;;;;;;;;;;;;;;;;;5085272;28;20332;-62
2022/12/29 02:32:33;;;;;;;;;;;;;;;;;;5077214;28;19974;-62
2022/12/29 02:35:02;;;;;;;;;;;;;;;;;;5077874;28;19975;-61
2022/12/29 02:37:31;;;;;;;;;;;;;;;;;;5081497;28;19967;-60
2022/12/29 02:39:58;;;;;;;;;;;;;;;;;;5080649;28;19978;-61
2022/12/29 02:42:25;;;;;;;;;;;;;;;;;;5077959;28;19928;-62
2022/12/29 02:44:53;;;;;;;;;;;;;;;;;;5082401;28;19932;-61
2022/12/29 02:47:22;;;;;;;;;;;;;;;;;;5080605;28;19928;-61
2022/12/29 02:49:53;;;;;;;;;;;;;;;;;;5079198;28;20031;-61
2022/12/29 02:52:21;;;;;;;;;;;;;;;;;;5069570;28;19932;-61
2022/12/29 02:54:47;;;;;;;;;;;;;;;;;;5076755;28;19924;-61
2022/12/29 02:57:15;;;;;;;;;;;;;;;;;;5080393;28;20027;-62
2022/12/29 02:59:41;;;;;;;;;;;;;;;;;;5078273;28;20357;-61
2022/12/29 03:02:18;;;;;;;;;;;;;;;;;;5075726;28;20007;-61
2022/12/29 03:04:48;;;;;;;;;;;;;;;;;;5078729;28;19928;-61
2022/12/29 03:07:18;;;;;;;;;;;;;;;;;;5080978;28;19977;-61
2022/12/29 03:09:47;;;;;;;;;;;;;;;;;;5079444;28;20042;-61
2022/12/29 03:12:15;;;;;;;;;;;;;;;;;;5078224;28;19932;-61
2022/12/29 03:17:36;;;;;;;;;;;;;;;;;;5079132;28;20280;-61
2022/12/29 03:20:04;;;;;;;;;;;;;;;;;;5081302;28;20372;-61
2022/12/29 03:22:32;;;;;;;;;;;;;;;;;;5074931;28;19924;-61
2022/12/29 03:24:59;;;;;;;;;;;;;;;;;;5073954;28;19970;-61
2022/12/29 03:27:26;;;;;;;;;;;;;;;;;;5075790;28;20015;-61
2022/12/29 03:29:54;;;;;;;;;;;;;;;;;;5078092;28;20079;-62
2022/12/29 03:32:21;;;;;;;;;;;;;;;;;;5076184;28;19933;-61
2022/12/29 03:37:53;;;;;;;;;;;;;;;;;;5081423;28;20386;-62
2022/12/29 03:40:19;;;;;;;;;;;;;;;;;;5080423;28;19929;-61
2022/12/29 03:42:46;;;;;;;;;;;;;;;;;;5078037;28;20023;-61
2022/12/29 03:45:12;;;;;;;;;;;;;;;;;;5077219;28;19928;-61
2022/12/29 03:47:38;;;;;;;;;;;;;;;;;;5076687;28;20019;-61
2022/12/29 03:50:05;;;;;;;;;;;;;;;;;;5081550;28;20031;-61
2022/12/29 03:52:32;;;;;;;;;;;;;;;;;;5076266;28;19959;-61
2022/12/29 03:54:59;;;;;;;;;;;;;;;;;;5083174;28;20015;-61
2022/12/29 03:57:26;;;;;;;;;;;;;;;;;;5082983;28;20344;-61
2022/12/29 03:59:52;;;;;;;;;;;;;;;;;;5082165;28;19971;-61
2022/12/29 04:02:18;;;;;;;;;;;;;;;;;;5083904;28;20377;-61
2022/12/29 04:04:45;;;;;;;;;;;;;;;;;;5082804;28;20434;-62
2022/12/29 04:07:11;;;;;;;;;;;;;;;;;;5086480;28;20387;-61
2022/12/29 04:09:37;;;;;;;;;;;;;;;;;;5080010;28;20029;-62
2022/12/29 04:12:05;;;;;;;;;;;;;;;;;;5077813;28;19925;-61
2022/12/29 04:14:32;;;;;;;;;;;;;;;;;;5072300;28;19975;-61
2022/12/29 04:16:58;;;;;;;;;;;;;;;;;;5084445;28;20002;-62
2022/12/29 04:19:24;;;;;;;;;;;;;;;;;;5083351;28;19929;-61
2022/12/29 04:21:50;;;;;;;;;;;;;;;;;;5085815;28;20043;-61
2022/12/29 04:24:16;;;;;;;;;;;;;;;;;;5079191;28;19986;-62
2022/12/29 04:26:42;;;;;;;;;;;;;;;;;;5079797;28;20371;-61
2022/12/29 04:29:10;;;;;;;;;;;;;;;;;;5084614;28;20423;-62
2022/12/29 04:31:37;;;;;;;;;;;;;;;;;;5075689;28;19928;-61
2022/12/29 04:34:03;;;;;;;;;;;;;;;;;;5080478;28;19925;-61
2022/12/29 04:36:29;;;;;;;;;;;;;;;;;;5084003;28;20006;-61
2022/12/29 04:38:56;;;;;;;;;;;;;;;;;;5080243;28;19928;-62
2022/12/29 04:41:22;;;;;;;;;;;;;;;;;;5082005;28;19972;-60
2022/12/29 04:43:48;;;;;;;;;;;;;;;;;;5078668;28;19967;-61
2022/12/29 04:46:16;;;;;;;;;;;;;;;;;;5078947;28;20011;-61
2022/12/29 04:48:43;;;;;;;;;;;;;;;;;;5082306;28;20031;-61
2022/12/29 04:51:09;;;;;;;;;;;;;;;;;;5080263;28;19959;-61
2022/12/29 04:53:35;;;;;;;;;;;;;;;;;;5082321;28;19972;-62
2022/12/29 04:56:02;;;;;;;;;;;;;;;;;;5080574;28;19968;-62
2022/12/29 04:58:28;;;;;;;;;;;;;;;;;;5079891;28;20014;-62
2022/12/29 05:00:54;;;;;;;;;;;;;;;;;;5080947;28;19956;-61
2022/12/29 05:03:22;;;;;;;;;;;;;;;;;;5071644;28;19924;-61
2022/12/29 05:05:48;;;;;;;;;;;;;;;;;;5079374;28;19994;-62
2022/12/29 05:08:15;;;;;;;;;;;;;;;;;;5082982;28;19982;-61
2022/12/29 05:10:44;;;;;;;;;;;;;;;;;;5076041;28;20023;-61
2022/12/29 05:13:10;;;;;;;;;;;;;;;;;;5080736;28;19975;-61
2022/12/29 05:15:37;;;;;;;;;;;;;;;;;;5077272;28;19978;-62
2022/12/29 05:18:03;;;;;;;;;;;;;;;;;;5081967;28;19978;-62
2022/12/29 05:20:31;;;;;;;;;;;;;;;;;;5080838;28;19975;-62
2022/12/29 05:22:57;;;;;;;;;;;;;;;;;;5083632;28;19986;-61
2022/12/29 05:25:24;;;;;;;;;;;;;;;;;;5082401;28;19981;-61
2022/12/29 05:27:50;;;;;;;;;;;;;;;;;;5082029;28;20011;-61
2022/12/29 05:30:16;;;;;;;;;;;;;;;;;;5078683;28;20023;-61
2022/12/29 05:32:43;;;;;;;;;;;;;;;;;;5084047;28;20038;-61
2022/12/29 05:35:09;;;;;;;;;;;;;;;;;;5083919;28;19966;-61
2022/12/29 05:37:37;;;;;;;;;;;;;;;;;;5082035;28;20014;-61
2022/12/29 05:40:03;;;;;;;;;;;;;;;;;;5077829;28;20027;-62
2022/12/29 05:42:30;;;;;;;;;;;;;;;;;;5083732;28;20534;-62
2022/12/29 05:44:56;;;;;;;;;;;;;;;;;;5081520;28;20438;-61
2022/12/29 05:47:22;;;;;;;;;;;;;;;;;;5076580;28;20562;-62
2022/12/29 05:49:49;;;;;;;;;;;;;;;;;;5082346;28;20489;-62
2022/12/29 05:52:15;;;;;;;;;;;;;;;;;;5077619;28;20426;-62
2022/12/29 05:54:43;;;;;;;;;;;;;;;;;;5080842;28;20446;-61
2022/12/29 05:57:09;;;;;;;;;;;;;;;;;;5082830;28;20019;-62
2022/12/29 05:59:36;;;;;;;;;;;;;;;;;;5070367;28;20011;-62
2022/12/29 06:02:02;;;;;;;;;;;;;;;;;;5078067;28;19998;-62
2022/12/29 06:04:29;;;;;;;;;;;;;;;;;;5079751;28;19974;-62
2022/12/29 06:06:55;;;;;;;;;;;;;;;;;;5071988;28;19932;-62
2022/12/29 06:09:21;;;;;;;;;;;;;;;;;;5084158;28;19928;-62
2022/12/29 06:11:49;;;;;;;;;;;;;;;;;;5073015;28;19971;-61
2022/12/29 06:14:16;;;;;;;;;;;;;;;;;;5075818;28;20025;-60
2022/12/29 06:16:42;;;;;;;;;;;;;;;;;;5080272;28;19979;-61
2022/12/29 06:19:09;;;;;;;;;;;;;;;;;;5079778;28;19933;-62
2022/12/29 06:21:35;;;;;;;;;;;;;;;;;;5076026;28;20023;-62
2022/12/29 06:24:01;;;;;;;;;;;;;;;;;;5079258;28;20005;-61
2022/12/29 06:26:28;;;;;;;;;;;;;;;;;;5079791;28;20011;-62
2022/12/29 06:28:55;;;;;;;;;;;;;;;;;;5072930;28;19986;-61
2022/12/29 06:31:22;;;;;;;;;;;;;;;;;;5073668;28;20405;-61
2022/12/29 06:33:48;;;;;;;;;;;;;;;;;;5078611;28;19956;-62
2022/12/29 06:36:15;;;;;;;;;;;;;;;;;;5069825;28;19935;-62
2022/12/29 06:38:41;;;;;;;;;;;;;;;;;;5072700;28;20027;-60
2022/12/29 06:41:07;;;;;;;;;;;;;;;;;;5076723;28;20024;-61
2022/12/29 06:43:35;;;;;;;;;;;;;;;;;;5081366;28;19970;-62
2022/12/29 06:46:03;;;;;;;;;;;;;;;;;;5074853;28;19934;-61
2022/12/29 06:48:29;;;;;;;;;;;;;;;;;;5080262;28;20027;-62
2022/12/29 06:50:56;;;;;;;;;;;;;;;;;;5069094;28;20011;-62
2022/12/29 06:53:22;;;;;;;;;;;;;;;;;;5078362;28;20376;-62
2022/12/29 06:55:48;;;;;;;;;;;;;;;;;;5082450;28;20015;-61
2022/12/29 06:58:15;;;;;;;;;;;;;;;;;;5073680;28;19997;-62
2022/12/29 07:00:41;;;;;;;;;;;;;;;;;;5074625;28;19967;-61
2022/12/29 07:03:09;;;;;;;;;;;;;;;;;;5081640;28;19931;-62
2022/12/29 07:05:35;;;;;;;;;;;;;;;;;;5077171;28;19971;-61
2022/12/29 07:08:02;;;;;;;;;;;;;;;;;;5083172;28;20003;-62
2022/12/29 07:10:28;;;;;;;;;;;;;;;;;;5081960;28;20006;-62
2022/12/29 07:12:54;;;;;;;;;;;;;;;;;;5077131;28;19972;-61
2022/12/29 07:15:21;;;;;;;;;;;;;;;;;;5080134;28;20029;-62
2022/12/29 07:17:49;;;;;;;;;;;;;;;;;;5074625;28;19928;-62
2022/12/29 07:20:17;;;;;;;;;;;;;;;;;;5080431;28;20302;-62
2022/12/29 07:22:43;;;;;;;;;;;;;;;;;;5079094;28;19924;-62
2022/12/29 07:25:09;;;;;;;;;;;;;;;;;;5078713;28;19986;-61
2022/12/29 07:27:36;;;;;;;;;;;;;;;;;;5079333;28;19974;-61
2022/12/29 07:30:02;;;;;;;;;;;;;;;;;;5076931;28;19971;-62
2022/12/29 07:32:28;;;;;;;;;;;;;;;;;;5076261;28;20356;-62
2022/12/29 07:34:55;;;;;;;;;;;;;;;;;;5082000;28;20343;-62
2022/12/29 07:37:23;;;;;;;;;;;;;;;;;;5077095;28;20395;-62
2022/12/29 07:39:49;;;;;;;;;;;;;;;;;;5075837;28;20019;-62
2022/12/29 07:42:15;;;;;;;;;;;;;;;;;;5079077;28;20019;-62
2022/12/29 07:44:42;;;;;;;;;;;;;;;;;;5079164;28;20023;-63
2022/12/29 07:47:08;;;;;;;;;;;;;;;;;;5072058;28;19975;-61
2022/12/29 07:49:34;;;;;;;;;;;;;;;;;;5077449;28;19975;-62
2022/12/29 07:52:01;;;;;;;;;;;;;;;;;;5078811;28;19967;-61
2022/12/29 07:54:28;;;;;;;;;;;;;;;;;;5072052;28;20024;-61
2022/12/29 07:56:55;;;;;;;;;;;;;;;;;;5069391;28;19960;-62
2022/12/29 07:59:21;;;;;;;;;;;;;;;;;;5073262;28;20331;-61
2022/12/29 08:01:47;;;;;;;;;;;;;;;;;;5077412;28;19928;-62
2022/12/29 08:04:14;;;;;;;;;;;;;;;;;;5078445;28;19928;-61
2022/12/29 08:06:40;;;;;;;;;;;;;;;;;;5075857;28;20012;-62
2022/12/29 08:09:06;;;;;;;;;;;;;;;;;;5071502;28;19928;-62
2022/12/29 08:11:34;;;;;;;;;;;;;;;;;;5079330;28;20007;-61
2022/12/29 08:14:00;;;;;;;;;;;;;;;;;;5077102;28;19972;-61
2022/12/29 08:16:27;;;;;;;;;;;;;;;;;;5080632;28;20014;-61
2022/12/29 08:18:53;;;;;;;;;;;;;;;;;;5080577;28;19971;-62
2022/12/29 08:21:19;;;;;;;;;;;;;;;;;;5077873;28;19987;-62
2022/12/29 08:23:46;;;;;;;;;;;;;;;;;;5079537;28;19975;-61
2022/12/29 08:26:12;;;;;;;;;;;;;;;;;;5076296;28;19928;-62
2022/12/29 08:28:40;;;;;;;;;;;;;;;;;;5067976;28;19936;-62
2022/12/29 08:31:06;;;;;;;;;;;;;;;;;;5076133;28;20339;-62
2022/12/29 08:33:33;;;;;;;;;;;;;;;;;;5078062;28;19924;-63
2022/12/29 08:36:00;;;;;;;;;;;;;;;;;;5077661;28;19925;-62
2022/12/29 08:38:27;;;;;;;;;;;;;;;;;;5078802;28;20046;-61
2022/12/29 08:40:53;;;;;;;;;;;;;;;;;;5081472;28;19935;-62
2022/12/29 08:43:20;;;;;;;;;;;;;;;;;;5071915;28;20057;-62
2022/12/29 08:45:48;;;;;;;;;;;;;;;;;;5080107;28;19928;-62
2022/12/29 08:48:17;;;;;;;;;;;;;;;;;;5079309;28;19964;-62
2022/12/29 08:50:44;;;;;;;;;;;;;;;;;;5080517;28;19928;-61
2022/12/29 08:53:10;;;;;;;;;;;;;;;;;;5081970;28;20005;-62
2022/12/29 08:55:37;;;;;;;;;;;;;;;;;;5087042;28;19968;-62
2022/12/29 08:58:03;;;;;;;;;;;;;;;;;;5078210;28;19928;-61
2022/12/29 09:00:29;;;;;;;;;;;;;;;;;;5083165;28;19979;-61
2022/12/29 09:02:57;;;;;;;;;;;;;;;;;;5082284;28;19982;-62
2022/12/29 09:05:23;;;;;;;;;;;;;;;;;;5084691;28;20031;-62
2022/12/29 09:07:50;;;;;;;;;;;;;;;;;;5080649;28;20057;-62
2022/12/29 09:10:16;;;;;;;;;;;;;;;;;;5081520;28;20119;-61
2022/12/29 09:12:43;;;;;;;;;;;;;;;;;;5080711;28;20472;-61
2022/12/29 09:15:10;;;;;;;;;;;;;;;;;;5084918;28;20387;-61
2022/12/29 09:17:43;;;;;;;;;;;;;;;;;;5079472;28;19935;-61
2022/12/29 09:20:11;;;;;;;;;;;;;;;;;;5078591;28;19959;-62
2022/12/29 09:22:37;;;;;;;;;;;;;;;;;;5084934;28;20431;-62
2022/12/29 09:25:04;;;;;;;;;;;;;;;;;;5081718;28;20013;-61
2022/12/29 09:27:30;;;;;;;;;;;;;;;;;;5078875;28;20011;-60
2022/12/29 09:29:57;;;;;;;;;;;;;;;;;;5079252;28;19985;-62
2022/12/29 09:32:23;;;;;;;;;;;;;;;;;;5078920;28;20007;-60
2022/12/29 09:34:50;;;;;;;;;;;;;;;;;;5075786;28;19932;-61
2022/12/29 09:37:17;;;;;;;;;;;;;;;;;;5080726;28;20015;-61
2022/12/29 09:39:44;;;;;;;;;;;;;;;;;;5081510;28;20486;-61
2022/12/29 09:42:13;;;;;;;;;;;;;;;;;;5081202;28;20026;-61
2022/12/29 09:44:45;;;;;;;;;;;;;;;;;;5079568;28;19975;-61
2022/12/29 09:47:11;;;;;;;;;;;;;;;;;;5081610;28;20007;-61
2022/12/29 09:49:40;;;;;;;;;;;;;;;;;;5078898;28;20048;-61
2022/12/29 09:52:09;;;;;;;;;;;;;;;;;;5082608;28;19932;-61
2022/12/29 09:54:42;;;;;;;;;;;;;;;;;;5081855;28;19967;-61
2022/12/29 09:57:11;;;;;;;;;;;;;;;;;;5078161;28;19982;-61
2022/12/29 09:59:39;;;;;;;;;;;;;;;;;;5080252;28;20379;-61
2022/12/29 10:02:09;;;;;;;;;;;;;;;;;;5080555;28;19964;-61
2022/12/29 10:04:35;;;;;;;;;;;;;;;;;;5076209;28;20011;-62
2022/12/29 10:07:02;;;;;;;;;;;;;;;;;;5078704;28;20023;-61
2022/12/29 10:09:31;;;;;;;;;;;;;;;;;;5077342;28;20023;-62
2022/12/29 10:12:02;;;;;;;;;;;;;;;;;;5079430;28;20019;-61
2022/12/29 10:14:34;;;;;;;;;;;;;;;;;;5082916;28;20122;-62
2022/12/29 10:17:02;;;;;;;;;;;;;;;;;;5076940;28;20009;-61
2022/12/29 10:19:47;;;;;;;;;;;;;;;;;;5083123;28;19924;-61
2022/12/29 10:22:17;;;;;;;;;;;;;;;;;;5080836;28;19984;-61
2022/12/29 10:24:44;;;;;;;;;;;;;;;;;;5081981;28;20404;-61
2022/12/29 10:27:12;;;;;;;;;;;;;;;;;;5083808;28;20711;-61
2022/12/29 10:29:40;;;;;;;;;;;;;;;;;;5072090;28;20088;-61
2022/12/29 10:32:06;;;;;;;;;;;;;;;;;;5073852;28;19972;-61
2022/12/29 10:34:35;;;;;;;;;;;;;;;;;;5078481;28;19983;-61
2022/12/29 10:37:03;;;;;;;;;;;;;;;;;;5080812;28;20434;-61
2022/12/29 10:39:31;;;;;;;;;;;;;;;;;;5071974;28;19967;-61
2022/12/29 10:41:58;;;;;;;;;;;;;;;;;;5079197;28;20475;-61
2022/12/29 10:44:26;;;;;;;;;;;;;;;;;;5082543;28;19967;-61
2022/12/29 10:46:55;;;;;;;;;;;;;;;;;;5077721;28;20585;-61
2022/12/29 10:49:23;;;;;;;;;;;;;;;;;;5087751;28;19928;-61
2022/12/29 10:51:51;;;;;;;;;;;;;;;;;;5075370;28;19943;-61
2022/12/29 10:54:19;;;;;;;;;;;;;;;;;;5073814;28;19924;-61
2022/12/29 10:56:47;;;;;;;;;;;;;;;;;;5080737;28;19936;-62
2022/12/29 10:59:15;;;;;;;;;;;;;;;;;;5078116;28;20404;-62
2022/12/29 11:01:43;;;;;;;;;;;;;;;;;;5077765;28;20118;-61
2022/12/29 11:04:16;;;;;;;;;;;;;;;;;;5076871;28;20023;-61
2022/12/29 11:06:42;;;;;;;;;;;;;;;;;;5079016;28;19969;-61
2022/12/29 11:09:10;;;;;;;;;;;;;;;;;;5081128;28;20011;-61
2022/12/29 11:11:37;;;;;;;;;;;;;;;;;;5078012;28;20023;-61
2022/12/29 11:14:04;;;;;;;;;;;;;;;;;;5078784;28;19975;-61
2022/12/29 11:16:31;;;;;;;;;;;;;;;;;;5077060;28;20015;-61
2022/12/29 11:18:59;;;;;;;;;;;;;;;;;;5077384;28;19924;-61
2022/12/29 11:21:27;;;;;;;;;;;;;;;;;;5075949;28;20015;-61
2022/12/29 11:23:56;;;;;;;;;;;;;;;;;;5081391;28;20056;-61
2022/12/29 11:26:23;;;;;;;;;;;;;;;;;;5086344;28;20477;-61
2022/12/29 11:29:04;;;;;;;;;;;;;;;;;;5079705;28;20028;-61
2022/12/29 11:31:31;;;;;;;;;;;;;;;;;;5077153;28;19925;-61
2022/12/29 11:33:59;;;;;;;;;;;;;;;;;;5078949;28;20022;-61
2022/12/29 11:36:25;;;;;;;;;;;;;;;;;;5075492;28;19971;-60
2022/12/29 11:38:52;;;;;;;;;;;;;;;;;;5080885;28;20015;-61
2022/12/29 11:41:22;;;;;;;;;;;;;;;;;;5077976;28;20343;-61
2022/12/29 11:43:48;;;;;;;;;;;;;;;;;;5075463;28;20022;-61
2022/12/29 11:46:15;;;;;;;;;;;;;;;;;;5075773;28;19942;-61
2022/12/29 11:48:42;;;;;;;;;;;;;;;;;;5076604;28;19952;-61
2022/12/29 11:51:09;;;;;;;;;;;;;;;;;;5078067;28;20456;-61
2022/12/29 11:53:38;;;;;;;;;;;;;;;;;;5074315;28;20395;-61
2022/12/29 11:56:05;;;;;;;;;;;;;;;;;;5076492;28;19935;-60
2022/12/29 11:58:32;;;;;;;;;;;;;;;;;;5076913;28;19971;-61
2022/12/29 12:00:59;;;;;;;;;;;;;;;;;;5076961;28;20018;-61
2022/12/29 12:03:25;;;;;;;;;;;;;;;;;;5078933;28;19971;-61
2022/12/29 12:05:54;;;;;;;;;;;;;;;;;;5079983;28;19924;-62
2022/12/29 12:08:22;;;;;;;;;;;;;;;;;;5075906;28;20095;-61
2022/12/29 12:10:49;;;;;;;;;;;;;;;;;;5077732;28;20026;-61
2022/12/29 12:13:18;;;;;;;;;;;;;;;;;;5078019;28;20382;-64
2022/12/29 12:15:45;;;;;;;;;;;;;;;;;;5082607;28;20043;-62
2022/12/29 12:18:12;;;;;;;;;;;;;;;;;;5082670;28;19974;-61
2022/12/29 12:20:39;;;;;;;;;;;;;;;;;;5080578;28;20011;-61
2022/12/29 12:23:09;;;;;;;;;;;;;;;;;;5084976;28;20019;-61
2022/12/29 12:25:38;;;;;;;;;;;;;;;;;;5078265;28;19929;-61
2022/12/29 12:29:09;;;;;;;;;;;;;;;;;;5112894;27;19912;-61
2022/12/29 12:31:41;;;;;;;;;;;;;;;;;;5101039;28;19963;-62
2022/12/29 12:34:08;;;;;;;;;;;;;;;;;;5099087;28;19984;-64
2022/12/29 12:36:41;;;;;;;;;;;;;;;;;;5097509;28;20018;-64
2022/12/29 12:39:09;;;;;;;;;;;;;;;;;;5101291;28;20520;-60
2022/12/29 12:41:39;;;;;;;;;;;;;;;;;;5099254;28;19967;-61
2022/12/29 12:44:08;;;;;;;;;;;;;;;;;;5099813;28;19993;-60
2022/12/29 12:46:42;;;;;;;;;;;;;;;;;;5100666;28;19932;-64
2022/12/29 12:49:15;;;;;;;;;;;;;;;;;;5098927;28;20325;-62
2022/12/29 12:51:43;;;;;;;;;;;;;;;;;;5095223;28;20015;-64
2022/12/29 12:54:16;;;;;;;;;;;;;;;;;;5099749;28;19970;-63
2022/12/29 12:56:45;;;;;;;;;;;;;;;;;;5097044;28;19964;-62
2022/12/29 12:59:17;;;;;;;;;;;;;;;;;;5095958;28;19983;-62
2022/12/29 13:01:46;;;;;;;;;;;;;;;;;;5095674;28;19924;-61
2022/12/29 13:04:34;;;;;;;;;;;;;;;;;;5096626;28;19967;-63
2022/12/29 13:07:03;;;;;;;;;;;;;;;;;;5097616;28;20433;-62
2022/12/29 13:09:35;;;;;;;;;;;;;;;;;;5096170;28;20018;-62
2022/12/29 13:12:04;;;;;;;;;;;;;;;;;;5093592;28;19981;-62
2022/12/29 13:14:36;;;;;;;;;;;;;;;;;;5094604;28;19972;-62
2022/12/29 13:17:03;;;;;;;;;;;;;;;;;;5088008;28;19928;-64
2022/12/29 13:19:30;;;;;;;;;;;;;;;;;;5091912;28;19963;-64
2022/12/29 13:21:59;;;;;;;;;;;;;;;;;;5094642;28;20388;-61
2022/12/29 13:24:26;;;;;;;;;;;;;;;;;;5099762;28;20451;-61
2022/12/29 13:26:54;;;;;;;;;;;;;;;;;;5097441;28;20358;-64
2022/12/29 13:29:23;;;;;;;;;;;;;;;;;;5094849;28;19958;-62
2022/12/29 13:31:53;;;;;;;;;;;;;;;;;;5092833;28;20418;-64
2022/12/29 13:34:22;;;;;;;;;;;;;;;;;;5087879;28;20406;-64
2022/12/29 13:36:49;;;;;;;;;;;;;;;;;;5089799;28;20017;-62
2022/12/29 13:39:16;;;;;;;;;;;;;;;;;;5086791;28;19979;-64
2022/12/29 13:41:44;;;;;;;;;;;;;;;;;;5080555;28;20019;-64
2022/12/29 13:44:10;;;;;;;;;;;;;;;;;;5083169;28;19978;-64
2022/12/29 13:46:38;;;;;;;;;;;;;;;;;;5082258;28;19931;-64
2022/12/29 13:49:07;;;;;;;;;;;;;;;;;;5082649;28;20003;-64
2022/12/29 13:51:34;;;;;;;;;;;;;;;;;;5083438;28;19935;-64
2022/12/29 13:54:11;;;;;;;;;;;;;;;;;;5083057;28;19963;-63
2022/12/29 13:56:39;;;;;;;;;;;;;;;;;;5083294;28;20015;-64
2022/12/29 13:59:06;;;;;;;;;;;;;;;;;;5078907;28;19986;-67
2022/12/29 14:01:35;;;;;;;;;;;;;;;;;;5082850;28;19963;-63
2022/12/29 14:04:02;;;;;;;;;;;;;;;;;;5083693;28;19938;-63
2022/12/29 14:06:30;;;;;;;;;;;;;;;;;;5081077;28;19928;-64
2022/12/29 14:08:57;;;;;;;;;;;;;;;;;;5073907;28;20035;-63
2022/12/29 14:11:26;;;;;;;;;;;;;;;;;;5086589;28;19970;-64
2022/12/29 14:13:53;;;;;;;;;;;;;;;;;;5081498;28;19928;-64
2022/12/29 14:16:25;;;;;;;;;;;;;;;;;;5074727;28;19971;-64
2022/12/29 14:18:53;;;;;;;;;;;;;;;;;;5076895;28;20357;-63
2022/12/29 14:21:22;;;;;;;;;;;;;;;;;;5080100;28;19928;-63
2022/12/29 14:23:50;;;;;;;;;;;;;;;;;;5079212;28;19924;-63
2022/12/29 14:26:18;;;;;;;;;;;;;;;;;;5077824;28;19983;-63
2022/12/29 14:28:44;;;;;;;;;;;;;;;;;;5079620;28;19925;-64
2022/12/29 14:31:34;;;;;;;;;;;;;;;;;;5080361;28;19925;-64
2022/12/29 14:34:19;;;;;;;;;;;;;;;;;;5079092;28;19975;-63
2022/12/29 14:36:54;;;;;;;;;;;;;;;;;;5079364;28;20007;-64
2022/12/29 14:39:32;;;;;;;;;;;;;;;;;;5075360;28;19967;-64
2022/12/29 14:42:00;;;;;;;;;;;;;;;;;;5078129;28;19924;-64
2022/12/29 14:44:26;;;;;;;;;;;;;;;;;;5074160;28;20431;-64
2022/12/29 14:46:57;;;;;;;;;;;;;;;;;;5075531;28;19931;-63
2022/12/29 14:49:24;;;;;;;;;;;;;;;;;;5071234;28;20011;-63
2022/12/29 14:51:51;;;;;;;;;;;;;;;;;;5076229;28;19935;-63
2022/12/29 14:54:38;;;;;;;;;;;;;;;;;;5071567;28;19928;-63
2022/12/29 14:57:08;;;;;;;;;;;;;;;;;;5079322;28;20344;-63
2022/12/29 14:59:35;;;;;;;;;;;;;;;;;;5075807;28;19932;-63
2022/12/29 15:02:01;;;;;;;;;;;;;;;;;;5074757;28;20016;-63
2022/12/29 15:04:30;;;;;;;;;;;;;;;;;;5077043;28;19974;-63
2022/12/29 15:06:56;;;;;;;;;;;;;;;;;;5076621;28;19974;-64
2022/12/29 15:09:24;;;;;;;;;;;;;;;;;;5078649;28;20019;-64
2022/12/29 15:11:52;;;;;;;;;;;;;;;;;;5077760;28;20019;-63
2022/12/29 15:14:30;;;;;;;;;;;;;;;;;;5077578;28;20018;-63
2022/12/29 15:16:56;;;;;;;;;;;;;;;;;;5082372;28;20019;-64
2022/12/29 15:19:23;;;;;;;;;;;;;;;;;;5070930;28;19982;-64
2022/12/29 15:21:49;;;;;;;;;;;;;;;;;;5074589;28;19928;-63
2022/12/29 15:24:15;;;;;;;;;;;;;;;;;;5072842;28;19967;-63
2022/12/29 15:26:42;;;;;;;;;;;;;;;;;;5078851;28;19963;-64
2022/12/29 15:29:27;;;;;;;;;;;;;;;;;;5076845;28;20412;-64
2022/12/29 15:32:01;;;;;;;;;;;;;;;;;;5078023;28;20434;-64
2022/12/29 15:34:30;;;;;;;;;;;;;;;;;;5082648;28;20347;-63
2022/12/29 15:36:56;;;;;;;;;;;;;;;;;;5075497;28;20428;-63
2022/12/29 15:39:27;;;;;;;;;;;;;;;;;;5081026;28;20031;-64
2022/12/29 15:42:01;;;;;;;;;;;;;;;;;;5078736;28;19924;-71
2022/12/29 15:44:28;;;;;;;;;;;;;;;;;;5079500;28;20390;-72
2022/12/29 15:46:56;;;;;;;;;;;;;;;;;;5080917;28;20425;-72
2022/12/29 15:49:23;;;;;;;;;;;;;;;;;;5077939;28;20371;-73
2022/12/29 15:51:50;;;;;;;;;;;;;;;;;;5080517;28;19928;-70
2022/12/29 15:54:17;;;;;;;;;;;;;;;;;;5082369;28;20054;-69
2022/12/29 15:56:43;;;;;;;;;;;;;;;;;;5078727;28;20011;-70
2022/12/29 16:01:47;;;;;;;;;;;;;;;;;;5181630;22;20463;-63
2022/12/29 16:04:15;;;;;;;;;;;;;;;;;;5122955;27;20006;-64
2022/12/29 16:06:45;;;;;;;;;;;;;;;;;;5116703;27;19935;-65
2022/12/29 16:09:15;;;;;;;;;;;;;;;;;;5125063;27;19942;-62
2022/12/29 16:11:42;;;;;;;;;;;;;;;;;;5119310;27;19971;-64
2022/12/29 16:14:10;;;;;;;;;;;;;;;;;;5120046;27;19928;-62
2022/12/29 16:16:36;;;;;;;;;;;;;;;;;;5122966;27;20010;-69
2022/12/29 16:19:03;;;;;;;;;;;;;;;;;;5120221;27;20022;-67
2022/12/29 16:21:32;;;;;;;;;;;;;;;;;;5120497;27;20046;-61
2022/12/29 16:24:00;;;;;;;;;;;;;;;;;;5121625;27;19924;-61
2022/12/29 16:26:27;;;;;;;;;;;;;;;;;;5119151;28;19970;-62
2022/12/29 16:28:55;;;;;;;;;;;;;;;;;;5117919;28;19923;-61
2022/12/29 16:31:22;;;;;;;;;;;;;;;;;;5121081;28;20018;-63
2022/12/29 16:33:49;;;;;;;;;;;;;;;;;;5124559;28;20016;-61
2022/12/29 16:36:22;;;;;;;;;;;;;;;;;;5118507;28;19975;-63
2022/12/29 16:38:50;;;;;;;;;;;;;;;;;;5120345;28;19980;-65
2022/12/29 16:41:29;;;;;;;;;;;;;;;;;;5128103;28;19943;-62
2022/12/29 16:44:10;;;;;;;;;;;;;;;;;;5124663;28;20446;-64
2022/12/29 16:46:36;;;;;;;;;;;;;;;;;;5125582;28;20014;-64
2022/12/29 16:49:03;;;;;;;;;;;;;;;;;;5122878;28;20014;-63
2022/12/29 16:51:30;;;;;;;;;;;;;;;;;;5125138;28;19974;-65
2022/12/29 16:53:58;;;;;;;;;;;;;;;;;;5125674;28;19970;-64
2022/12/29 16:56:26;;;;;;;;;;;;;;;;;;5124428;28;19950;-64
2022/12/29 16:58:55;;;;;;;;;;;;;;;;;;5124839;28;19923;-64
2022/12/29 17:01:22;;;;;;;;;;;;;;;;;;5123461;28;19931;-61
2022/12/29 17:03:49;;;;;;;;;;;;;;;;;;5124502;28;20046;-63
2022/12/29 17:06:15;;;;;;;;;;;;;;;;;;5120894;28;20373;-65
2022/12/29 17:08:42;;;;;;;;;;;;;;;;;;5118508;28;19985;-64
2022/12/29 17:13:58;;;;;;;;;;;;;;;;;;5118424;27;20069;-63
2022/12/29 17:16:25;;;;;;;;;;;;;;;;;;5124751;27;19970;-63
2022/12/29 17:18:51;;;;;;;;;;;;;;;;;;5123262;27;19971;-63
2022/12/29 17:21:18;;;;;;;;;;;;;;;;;;5122048;27;19979;-63
2022/12/29 17:23:44;;;;;;;;;;;;;;;;;;5122421;27;19932;-59
2022/12/29 17:26:12;;;;;;;;;;;;;;;;;;5122902;27;20397;-60